sensor_id;sensor_type;location;lat;lon;timestamp;P1;durP1;ratioP1;P2;durP2;ratioP2
53389;SDS011;39288;42.970;1.524;2022-07-29T08:13:03;10.38;;;4.60;;
53389;SDS011;39288;42.970;1.524;2022-07-29T08:14:04;7.25;;;4.00;;
53389;SDS011;39288;42.970;1.524;2022-07-29T08:15:05;7.27;;;4.23;;
53389;SDS011;39288;42.970;1.524;2022-07-29T08:16:07;6.05;;;3.90;;
53389;SDS011;39288;42.970;1.524;2022-07-29T08:17:12;18.15;;;11.88;;
53389;SDS011;39288;42.970;1.524;2022-07-29T08:18:12;10.23;;;7.07;;
53389;SDS011;39288;42.970;1.524;2022-07-29T08:19:13;11.97;;;6.70;;
53389;SDS011;39288;42.970;1.524;2022-07-29T08:20:13;13.40;;;8.73;;
53389;SDS011;39288;42.970;1.524;2022-07-29T08:21:14;15.53;;;11.33;;
53389;SDS011;39288;42.970;1.524;2022-07-29T08:22:15;13.95;;;9.75;;
53389;SDS011;39288;42.970;1.524;2022-07-29T08:23:16;13.33;;;7.37;;
53389;SDS011;39288;42.970;1.524;2022-07-29T08:24:19;12.55;;;7.00;;
53389;SDS011;39288;42.970;1.524;2022-07-29T08:25:39;8.63;;;6.00;;
53389;SDS011;39288;42.970;1.524;2022-07-29T08:26:43;7.50;;;4.93;;
53389;SDS011;39288;42.970;1.524;2022-07-29T08:27:44;8.70;;;4.50;;
53389;SDS011;39288;42.970;1.524;2022-07-29T08:28:45;9.70;;;6.03;;
53389;SDS011;39288;42.970;1.524;2022-07-29T08:29:46;10.52;;;5.93;;
53389;SDS011;39288;42.970;1.524;2022-07-29T08:30:47;9.63;;;6.40;;
53389;SDS011;39288;42.970;1.524;2022-07-29T08:31:47;11.63;;;7.07;;
53389;SDS011;39288;42.970;1.524;2022-07-29T08:32:48;9.00;;;5.70;;
53389;SDS011;39288;42.970;1.524;2022-07-29T08:33:50;11.75;;;6.25;;
53389;SDS011;39288;42.970;1.524;2022-07-29T08:34:50;10.23;;;6.97;;
53389;SDS011;39288;42.970;1.524;2022-07-29T08:35:51;12.50;;;6.63;;
53389;SDS011;39288;42.970;1.524;2022-07-29T08:36:51;11.40;;;6.70;;
53389;SDS011;39288;42.970;1.524;2022-07-29T08:37:52;9.73;;;6.20;;
53389;SDS011;39288;42.970;1.524;2022-07-29T08:38:53;11.70;;;6.43;;
53389;SDS011;39288;42.970;1.524;2022-07-29T08:39:54;11.93;;;7.38;;
53389;SDS011;39288;42.970;1.524;2022-07-29T08:40:55;10.88;;;6.30;;
53389;SDS011;39288;42.970;1.524;2022-07-29T08:41:56;6.57;;;5.93;;
53389;SDS011;39288;42.970;1.524;2022-07-29T08:42:57;9.93;;;6.47;;
53389;SDS011;39288;42.970;1.524;2022-07-29T08:43:58;10.00;;;5.65;;
53389;SDS011;39288;42.970;1.524;2022-07-29T08:44:59;8.55;;;6.28;;
53389;SDS011;39288;42.970;1.524;2022-07-29T08:46:00;8.70;;;6.27;;
53389;SDS011;39288;42.970;1.524;2022-07-29T08:47:00;10.77;;;6.10;;
53389;SDS011;39288;42.970;1.524;2022-07-29T08:48:01;11.88;;;5.88;;
53389;SDS011;39288;42.970;1.524;2022-07-29T08:49:02;7.95;;;5.18;;
53389;SDS011;39288;42.970;1.524;2022-07-29T08:50:03;8.37;;;4.90;;
53389;SDS011;39288;42.970;1.524;2022-07-29T08:51:12;7.93;;;5.43;;
53389;SDS011;39288;42.970;1.524;2022-07-29T08:52:14;8.50;;;5.90;;
53389;SDS011;39288;42.970;1.524;2022-07-29T08:53:17;7.35;;;4.38;;
53389;SDS011;39288;42.970;1.524;2022-07-29T08:54:18;7.97;;;4.10;;
53389;SDS011;39288;42.970;1.524;2022-07-29T08:55:22;7.35;;;4.65;;
53389;SDS011;39288;42.970;1.524;2022-07-29T08:56:23;7.57;;;4.20;;
53389;SDS011;39288;42.970;1.524;2022-07-29T08:57:24;6.43;;;3.93;;
53389;SDS011;39288;42.970;1.524;2022-07-29T08:58:25;4.15;;;3.60;;
53389;SDS011;39288;42.970;1.524;2022-07-29T08:59:27;4.60;;;3.05;;
53389;SDS011;39288;42.970;1.524;2022-07-29T09:00:30;4.43;;;3.45;;
53389;SDS011;39288;42.970;1.524;2022-07-29T09:01:32;4.18;;;3.33;;
53389;SDS011;39288;42.970;1.524;2022-07-29T09:02:35;5.50;;;2.90;;
53389;SDS011;39288;42.970;1.524;2022-07-29T09:03:40;3.58;;;2.70;;
53389;SDS011;39288;42.970;1.524;2022-07-29T09:04:41;4.50;;;2.75;;
53389;SDS011;39288;42.970;1.524;2022-07-29T09:05:42;2.60;;;2.33;;
53389;SDS011;39288;42.970;1.524;2022-07-29T09:06:44;5.22;;;2.67;;
53389;SDS011;39288;42.970;1.524;2022-07-29T09:07:45;3.78;;;2.50;;
53389;SDS011;39288;42.970;1.524;2022-07-29T09:08:47;4.40;;;2.50;;
53389;SDS011;39288;42.970;1.524;2022-07-29T09:09:48;3.20;;;2.40;;
53389;SDS011;39288;42.970;1.524;2022-07-29T09:10:49;5.07;;;2.73;;
53389;SDS011;39288;42.970;1.524;2022-07-29T09:11:50;8.82;;;3.03;;
53389;SDS011;39288;42.970;1.524;2022-07-29T09:12:56;4.57;;;3.00;;
53389;SDS011;39288;42.970;1.524;2022-07-29T09:13:57;5.35;;;3.65;;
53389;SDS011;39288;42.970;1.524;2022-07-29T09:14:57;5.43;;;3.53;;
53389;SDS011;39288;42.970;1.524;2022-07-29T09:15:58;7.50;;;3.27;;
53389;SDS011;39288;42.970;1.524;2022-07-29T09:16:58;3.57;;;2.83;;
53389;SDS011;39288;42.970;1.524;2022-07-29T09:17:59;3.83;;;2.73;;
53389;SDS011;39288;42.970;1.524;2022-07-29T09:19:00;5.40;;;2.80;;
53389;SDS011;39288;42.970;1.524;2022-07-29T09:20:21;8.70;;;3.07;;
53389;SDS011;39288;42.970;1.524;2022-07-29T09:21:22;2.95;;;2.53;;
53389;SDS011;39288;42.970;1.524;2022-07-29T09:22:41;19.45;;;3.50;;
53389;SDS011;39288;42.970;1.524;2022-07-29T09:23:58;5.60;;;3.10;;
53389;SDS011;39288;42.970;1.524;2022-07-29T09:24:59;5.45;;;2.88;;
53389;SDS011;39288;42.970;1.524;2022-07-29T09:26:00;6.93;;;3.00;;
53389;SDS011;39288;42.970;1.524;2022-07-29T09:27:18;8.65;;;3.65;;
53389;SDS011;39288;42.970;1.524;2022-07-29T09:28:21;6.28;;;2.95;;
53389;SDS011;39288;42.970;1.524;2022-07-29T09:29:23;3.25;;;2.40;;
53389;SDS011;39288;42.970;1.524;2022-07-29T09:30:24;4.20;;;2.42;;
53389;SDS011;39288;42.970;1.524;2022-07-29T09:31:32;3.43;;;2.57;;
53389;SDS011;39288;42.970;1.524;2022-07-29T09:32:34;3.05;;;2.17;;
53389;SDS011;39288;42.970;1.524;2022-07-29T09:33:54;5.05;;;2.42;;
53389;SDS011;39288;42.970;1.524;2022-07-29T09:35:17;3.58;;;2.15;;
53389;SDS011;39288;42.970;1.524;2022-07-29T09:36:20;6.00;;;2.33;;
53389;SDS011;39288;42.970;1.524;2022-07-29T09:37:28;4.30;;;2.80;;
53389;SDS011;39288;42.970;1.524;2022-07-29T09:38:29;5.80;;;2.63;;
53389;SDS011;39288;42.970;1.524;2022-07-29T09:39:39;4.47;;;2.60;;
53389;SDS011;39288;42.970;1.524;2022-07-29T09:40:55;4.22;;;2.58;;
53389;SDS011;39288;42.970;1.524;2022-07-29T09:41:57;2.03;;;1.83;;
53389;SDS011;39288;42.970;1.524;2022-07-29T09:42:59;5.43;;;2.03;;
53389;SDS011;39288;42.970;1.524;2022-07-29T09:44:12;3.80;;;2.10;;
53389;SDS011;39288;42.970;1.524;2022-07-29T09:46:31;5.38;;;2.38;;
53389;SDS011;39288;42.970;1.524;2022-07-29T09:47:41;3.77;;;2.50;;
53389;SDS011;39288;42.970;1.524;2022-07-29T09:48:44;2.78;;;2.13;;
53389;SDS011;39288;42.970;1.524;2022-07-29T09:49:52;4.93;;;2.10;;
53389;SDS011;39288;42.970;1.524;2022-07-29T09:50:53;3.75;;;2.50;;
53389;SDS011;39288;42.970;1.524;2022-07-29T09:52:07;2.72;;;2.17;;
53389;SDS011;39288;42.970;1.524;2022-07-29T09:53:09;4.97;;;2.83;;
53389;SDS011;39288;42.970;1.524;2022-07-29T09:55:23;4.68;;;2.30;;
53389;SDS011;39288;42.970;1.524;2022-07-29T09:56:40;4.33;;;2.33;;
53389;SDS011;39288;42.970;1.524;2022-07-29T09:57:41;4.25;;;2.30;;
53389;SDS011;39288;42.970;1.524;2022-07-29T09:58:42;5.18;;;2.80;;
53389;SDS011;39288;42.970;1.524;2022-07-29T09:59:45;5.73;;;2.53;;
53389;SDS011;39288;42.970;1.524;2022-07-29T10:01:00;3.47;;;2.55;;
53389;SDS011;39288;42.970;1.524;2022-07-29T10:02:00;3.63;;;2.73;;
53389;SDS011;39288;42.970;1.524;2022-07-29T10:03:01;4.00;;;2.47;;
53389;SDS011;39288;42.970;1.524;2022-07-29T10:04:02;4.00;;;2.40;;
53389;SDS011;39288;42.970;1.524;2022-07-29T10:05:04;3.07;;;2.27;;
53389;SDS011;39288;42.970;1.524;2022-07-29T10:06:07;2.88;;;2.30;;
53389;SDS011;39288;42.970;1.524;2022-07-29T10:07:08;4.57;;;2.42;;
53389;SDS011;39288;42.970;1.524;2022-07-29T10:08:10;4.53;;;2.70;;
53389;SDS011;39288;42.970;1.524;2022-07-29T10:09:12;3.30;;;2.78;;
53389;SDS011;39288;42.970;1.524;2022-07-29T10:11:25;5.07;;;3.58;;
53389;SDS011;39288;42.970;1.524;2022-07-29T10:12:26;5.90;;;3.50;;
53389;SDS011;39288;42.970;1.524;2022-07-29T10:13:26;5.47;;;3.50;;
53389;SDS011;39288;42.970;1.524;2022-07-29T10:14:27;5.43;;;3.77;;
53389;SDS011;39288;42.970;1.524;2022-07-29T10:15:28;10.47;;;4.00;;
53389;SDS011;39288;42.970;1.524;2022-07-29T10:16:30;5.28;;;3.90;;
53389;SDS011;39288;42.970;1.524;2022-07-29T10:17:34;6.72;;;3.97;;
53389;SDS011;39288;42.970;1.524;2022-07-29T10:18:34;5.50;;;4.20;;
53389;SDS011;39288;42.970;1.524;2022-07-29T10:19:35;4.53;;;3.60;;
53389;SDS011;39288;42.970;1.524;2022-07-29T10:20:37;6.68;;;4.03;;
53389;SDS011;39288;42.970;1.524;2022-07-29T10:21:38;5.00;;;4.10;;
53389;SDS011;39288;42.970;1.524;2022-07-29T10:22:43;4.35;;;3.70;;
53389;SDS011;39288;42.970;1.524;2022-07-29T10:23:44;6.43;;;3.93;;
53389;SDS011;39288;42.970;1.524;2022-07-29T10:24:45;6.97;;;4.30;;
53389;SDS011;39288;42.970;1.524;2022-07-29T10:25:45;4.63;;;3.30;;
53389;SDS011;39288;42.970;1.524;2022-07-29T10:26:46;6.30;;;4.40;;
53389;SDS011;39288;42.970;1.524;2022-07-29T10:28:48;4.93;;;4.13;;
53389;SDS011;39288;42.970;1.524;2022-07-29T10:29:48;5.33;;;4.23;;
53389;SDS011;39288;42.970;1.524;2022-07-29T10:30:49;6.63;;;4.53;;
53389;SDS011;39288;42.970;1.524;2022-07-29T10:43:18;4.35;;;2.75;;
53389;SDS011;39288;42.970;1.524;2022-07-29T10:44:21;4.15;;;2.60;;
53389;SDS011;39288;42.970;1.524;2022-07-29T10:45:23;3.65;;;2.30;;
53389;SDS011;39288;42.970;1.524;2022-07-29T10:46:24;3.60;;;2.10;;
53389;SDS011;39288;42.970;1.524;2022-07-29T10:47:25;5.13;;;2.90;;
53389;SDS011;39288;42.970;1.524;2022-07-29T10:48:26;2.78;;;2.53;;
53389;SDS011;39288;42.970;1.524;2022-07-29T10:49:27;3.77;;;2.70;;
53389;SDS011;39288;42.970;1.524;2022-07-29T10:50:51;3.10;;;2.80;;
53389;SDS011;39288;42.970;1.524;2022-07-29T10:52:10;3.28;;;2.80;;
53389;SDS011;39288;42.970;1.524;2022-07-29T10:53:10;5.27;;;3.17;;
53389;SDS011;39288;42.970;1.524;2022-07-29T10:54:11;4.83;;;2.67;;
53389;SDS011;39288;42.970;1.524;2022-07-29T10:55:30;5.37;;;3.33;;
53389;SDS011;39288;42.970;1.524;2022-07-29T10:56:31;4.32;;;3.33;;
53389;SDS011;39288;42.970;1.524;2022-07-29T10:57:35;4.22;;;3.33;;
53389;SDS011;39288;42.970;1.524;2022-07-29T10:58:37;4.68;;;3.25;;
53389;SDS011;39288;42.970;1.524;2022-07-29T10:59:38;6.17;;;3.30;;
53389;SDS011;39288;42.970;1.524;2022-07-29T11:00:38;3.40;;;3.03;;
53389;SDS011;39288;42.970;1.524;2022-07-29T11:01:39;5.10;;;3.10;;
53389;SDS011;39288;42.970;1.524;2022-07-29T11:03:42;3.47;;;3.10;;
53389;SDS011;39288;42.970;1.524;2022-07-29T11:05:55;5.43;;;3.00;;
53389;SDS011;39288;42.970;1.524;2022-07-29T11:09:15;4.10;;;2.85;;
53389;SDS011;39288;42.970;1.524;2022-07-29T11:10:19;4.85;;;2.92;;
53389;SDS011;39288;42.970;1.524;2022-07-29T11:14:58;3.58;;;3.28;;
53389;SDS011;39288;42.970;1.524;2022-07-29T11:16:00;4.18;;;3.22;;
53389;SDS011;39288;42.970;1.524;2022-07-29T11:17:04;4.70;;;3.73;;
53389;SDS011;39288;42.970;1.524;2022-07-29T11:18:06;5.80;;;3.50;;
53389;SDS011;39288;42.970;1.524;2022-07-29T11:20:57;3.03;;;2.72;;
53389;SDS011;39288;42.970;1.524;2022-07-29T11:21:43;3.08;;;2.78;;
53389;SDS011;39288;42.970;1.524;2022-07-29T11:22:48;4.00;;;2.60;;
53389;SDS011;39288;42.970;1.524;2022-07-29T11:23:48;4.43;;;3.13;;
53389;SDS011;39288;42.970;1.524;2022-07-29T11:25:11;4.27;;;3.40;;
53389;SDS011;39288;42.970;1.524;2022-07-29T11:27:20;3.17;;;2.60;;
53389;SDS011;39288;42.970;1.524;2022-07-29T11:28:22;5.75;;;2.47;;
53389;SDS011;39288;42.970;1.524;2022-07-29T11:29:23;3.97;;;3.13;;
53389;SDS011;39288;42.970;1.524;2022-07-29T11:31:51;3.35;;;2.60;;
53389;SDS011;39288;42.970;1.524;2022-07-29T11:32:55;3.97;;;3.25;;
53389;SDS011;39288;42.970;1.524;2022-07-29T11:33:56;3.07;;;2.60;;
53389;SDS011;39288;42.970;1.524;2022-07-29T11:36:17;4.43;;;2.90;;
53389;SDS011;39288;42.970;1.524;2022-07-29T11:37:18;3.50;;;3.20;;
53389;SDS011;39288;42.970;1.524;2022-07-29T11:39:26;3.38;;;3.08;;
53389;SDS011;39288;42.970;1.524;2022-07-29T11:40:27;3.83;;;2.60;;
53389;SDS011;39288;42.970;1.524;2022-07-29T11:41:28;3.70;;;3.10;;
53389;SDS011;39288;42.970;1.524;2022-07-29T11:43:49;4.45;;;3.00;;
53389;SDS011;39288;42.970;1.524;2022-07-29T11:46:05;3.45;;;3.10;;
53389;SDS011;39288;42.970;1.524;2022-07-29T11:47:06;4.87;;;3.30;;
53389;SDS011;39288;42.970;1.524;2022-07-29T11:48:14;4.53;;;3.28;;
53389;SDS011;39288;42.970;1.524;2022-07-29T11:49:20;4.63;;;3.22;;
53389;SDS011;39288;42.970;1.524;2022-07-29T11:50:32;4.78;;;3.13;;
53389;SDS011;39288;42.970;1.524;2022-07-29T11:52:38;3.42;;;2.78;;
53389;SDS011;39288;42.970;1.524;2022-07-29T11:53:46;3.95;;;2.83;;
53389;SDS011;39288;42.970;1.524;2022-07-29T11:54:48;3.38;;;3.05;;
53389;SDS011;39288;42.970;1.524;2022-07-29T11:55:49;4.13;;;3.08;;
53389;SDS011;39288;42.970;1.524;2022-07-29T11:56:54;3.10;;;2.80;;
53389;SDS011;39288;42.970;1.524;2022-07-29T11:57:56;4.07;;;3.23;;
53389;SDS011;39288;42.970;1.524;2022-07-29T11:59:03;4.10;;;3.30;;
53389;SDS011;39288;42.970;1.524;2022-07-29T12:00:07;4.32;;;3.05;;
53389;SDS011;39288;42.970;1.524;2022-07-29T12:01:12;3.95;;;3.42;;
53389;SDS011;39288;42.970;1.524;2022-07-29T12:02:14;3.47;;;3.17;;
53389;SDS011;39288;42.970;1.524;2022-07-29T12:03:24;3.95;;;2.90;;
53389;SDS011;39288;42.970;1.524;2022-07-29T12:04:26;4.95;;;3.30;;
53389;SDS011;39288;42.970;1.524;2022-07-29T12:05:37;4.10;;;3.07;;
53389;SDS011;39288;42.970;1.524;2022-07-29T12:06:42;3.72;;;3.00;;
53389;SDS011;39288;42.970;1.524;2022-07-29T12:07:43;4.47;;;2.80;;
53389;SDS011;39288;42.970;1.524;2022-07-29T12:08:43;3.93;;;3.13;;
53389;SDS011;39288;42.970;1.524;2022-07-29T12:09:50;4.10;;;2.90;;
53389;SDS011;39288;42.970;1.524;2022-07-29T12:10:51;4.95;;;3.50;;
53389;SDS011;39288;42.970;1.524;2022-07-29T12:11:58;3.97;;;3.03;;
53389;SDS011;39288;42.970;1.524;2022-07-29T12:12:59;4.22;;;3.10;;
53389;SDS011;39288;42.970;1.524;2022-07-29T12:13:59;3.20;;;2.70;;
53389;SDS011;39288;42.970;1.524;2022-07-29T12:15:15;3.80;;;3.00;;
53389;SDS011;39288;42.970;1.524;2022-07-29T12:16:19;7.30;;;3.05;;
53389;SDS011;39288;42.970;1.524;2022-07-29T12:17:27;5.07;;;3.00;;
53389;SDS011;39288;42.970;1.524;2022-07-29T12:18:31;2.95;;;2.65;;
53389;SDS011;39288;42.970;1.524;2022-07-29T12:19:41;4.03;;;2.80;;
53389;SDS011;39288;42.970;1.524;2022-07-29T12:20:42;6.30;;;2.95;;
53389;SDS011;39288;42.970;1.524;2022-07-29T12:22:45;3.45;;;2.90;;
53389;SDS011;39288;42.970;1.524;2022-07-29T12:23:54;3.45;;;2.63;;
53389;SDS011;39288;42.970;1.524;2022-07-29T12:24:55;4.50;;;2.75;;
53389;SDS011;39288;42.970;1.524;2022-07-29T12:26:04;5.28;;;3.28;;
53389;SDS011;39288;42.970;1.524;2022-07-29T12:27:05;3.90;;;3.50;;
53389;SDS011;39288;42.970;1.524;2022-07-29T12:28:07;6.13;;;3.10;;
53389;SDS011;39288;42.970;1.524;2022-07-29T12:29:14;3.63;;;2.80;;
53389;SDS011;39288;42.970;1.524;2022-07-29T12:30:16;5.60;;;2.90;;
53389;SDS011;39288;42.970;1.524;2022-07-29T12:31:17;5.30;;;2.73;;
53389;SDS011;39288;42.970;1.524;2022-07-29T12:32:17;4.30;;;3.10;;
53389;SDS011;39288;42.970;1.524;2022-07-29T12:33:19;5.43;;;3.50;;
53389;SDS011;39288;42.970;1.524;2022-07-29T12:34:22;3.75;;;2.58;;
53389;SDS011;39288;42.970;1.524;2022-07-29T12:35:24;3.55;;;2.92;;
53389;SDS011;39288;42.970;1.524;2022-07-29T12:36:24;3.00;;;2.60;;
53389;SDS011;39288;42.970;1.524;2022-07-29T12:37:25;3.17;;;2.80;;
53389;SDS011;39288;42.970;1.524;2022-07-29T12:38:25;3.10;;;2.53;;
53389;SDS011;39288;42.970;1.524;2022-07-29T12:39:26;4.13;;;3.00;;
53389;SDS011;39288;42.970;1.524;2022-07-29T12:40:27;3.63;;;2.95;;
53389;SDS011;39288;42.970;1.524;2022-07-29T12:41:31;3.67;;;2.70;;
53389;SDS011;39288;42.970;1.524;2022-07-29T12:42:32;4.27;;;3.07;;
53389;SDS011;39288;42.970;1.524;2022-07-29T12:43:33;4.87;;;3.20;;
53389;SDS011;39288;42.970;1.524;2022-07-29T12:44:46;4.03;;;2.93;;
53389;SDS011;39288;42.970;1.524;2022-07-29T12:45:53;3.10;;;2.40;;
53389;SDS011;39288;42.970;1.524;2022-07-29T12:47:01;4.07;;;2.60;;
53389;SDS011;39288;42.970;1.524;2022-07-29T12:48:03;4.35;;;2.60;;
53389;SDS011;39288;42.970;1.524;2022-07-29T12:49:04;3.92;;;3.08;;
53389;SDS011;39288;42.970;1.524;2022-07-29T12:50:11;3.23;;;2.47;;
53389;SDS011;39288;42.970;1.524;2022-07-29T12:51:17;3.40;;;2.72;;
53389;SDS011;39288;42.970;1.524;2022-07-29T12:52:31;3.17;;;2.67;;
53389;SDS011;39288;42.970;1.524;2022-07-29T12:53:34;3.40;;;2.50;;
53389;SDS011;39288;42.970;1.524;2022-07-29T12:54:35;3.88;;;3.00;;
53389;SDS011;39288;42.970;1.524;2022-07-29T12:55:42;3.63;;;2.87;;
53389;SDS011;39288;42.970;1.524;2022-07-29T12:56:45;4.25;;;2.53;;
53389;SDS011;39288;42.970;1.524;2022-07-29T12:57:46;4.20;;;2.90;;
53389;SDS011;39288;42.970;1.524;2022-07-29T12:58:47;3.75;;;2.80;;
53389;SDS011;39288;42.970;1.524;2022-07-29T13:00:01;4.43;;;3.10;;
53389;SDS011;39288;42.970;1.524;2022-07-29T13:01:12;3.42;;;2.83;;
53389;SDS011;39288;42.970;1.524;2022-07-29T13:02:20;3.22;;;2.72;;
53389;SDS011;39288;42.970;1.524;2022-07-29T13:03:22;5.85;;;2.90;;
53389;SDS011;39288;42.970;1.524;2022-07-29T13:04:26;4.30;;;2.70;;
53389;SDS011;39288;42.970;1.524;2022-07-29T13:05:40;3.65;;;2.70;;
53389;SDS011;39288;42.970;1.524;2022-07-29T13:06:45;3.22;;;2.50;;
53389;SDS011;39288;42.970;1.524;2022-07-29T13:07:45;3.58;;;2.55;;
53389;SDS011;39288;42.970;1.524;2022-07-29T13:09:03;5.07;;;2.57;;
53389;SDS011;39288;42.970;1.524;2022-07-29T13:11:26;4.97;;;2.45;;
53389;SDS011;39288;42.970;1.524;2022-07-29T13:12:28;3.10;;;2.50;;
53389;SDS011;39288;42.970;1.524;2022-07-29T13:13:28;2.77;;;2.10;;
53389;SDS011;39288;42.970;1.524;2022-07-29T13:14:33;4.93;;;2.40;;
53389;SDS011;39288;42.970;1.524;2022-07-29T13:15:36;2.67;;;2.30;;
53389;SDS011;39288;42.970;1.524;2022-07-29T13:16:59;3.45;;;2.20;;
53389;SDS011;39288;42.970;1.524;2022-07-29T13:18:04;3.67;;;2.50;;
53389;SDS011;39288;42.970;1.524;2022-07-29T13:20:11;3.08;;;2.72;;
53389;SDS011;39288;42.970;1.524;2022-07-29T13:21:16;3.88;;;2.65;;
53389;SDS011;39288;42.970;1.524;2022-07-29T13:22:17;3.17;;;2.67;;
53389;SDS011;39288;42.970;1.524;2022-07-29T13:23:20;4.00;;;2.40;;
53389;SDS011;39288;42.970;1.524;2022-07-29T13:24:20;5.57;;;2.70;;
53389;SDS011;39288;42.970;1.524;2022-07-29T13:25:30;3.80;;;2.50;;
53389;SDS011;39288;42.970;1.524;2022-07-29T13:26:32;3.38;;;2.50;;
53389;SDS011;39288;42.970;1.524;2022-07-29T13:27:33;4.07;;;2.13;;
53389;SDS011;39288;42.970;1.524;2022-07-29T13:28:36;2.28;;;2.08;;
53389;SDS011;39288;42.970;1.524;2022-07-29T13:29:36;3.13;;;2.27;;
53389;SDS011;39288;42.970;1.524;2022-07-29T13:30:40;2.65;;;2.00;;
53389;SDS011;39288;42.970;1.524;2022-07-29T13:31:41;3.60;;;2.10;;
53389;SDS011;39288;42.970;1.524;2022-07-29T13:32:41;4.10;;;2.10;;
53389;SDS011;39288;42.970;1.524;2022-07-29T13:33:41;3.03;;;2.33;;
53389;SDS011;39288;42.970;1.524;2022-07-29T13:34:42;4.57;;;2.00;;
53389;SDS011;39288;42.970;1.524;2022-07-29T13:35:43;2.73;;;2.20;;
53389;SDS011;39288;42.970;1.524;2022-07-29T13:36:43;6.47;;;2.07;;
53389;SDS011;39288;42.970;1.524;2022-07-29T13:37:44;3.50;;;2.07;;
53389;SDS011;39288;42.970;1.524;2022-07-29T13:38:44;4.80;;;2.38;;
53389;SDS011;39288;42.970;1.524;2022-07-29T13:39:45;3.07;;;2.17;;
53389;SDS011;39288;42.970;1.524;2022-07-29T13:40:47;2.50;;;2.03;;
53389;SDS011;39288;42.970;1.524;2022-07-29T13:41:48;2.20;;;2.00;;
53389;SDS011;39288;42.970;1.524;2022-07-29T13:42:49;11.70;;;2.17;;
53389;SDS011;39288;42.970;1.524;2022-07-29T13:43:50;3.10;;;2.10;;
53389;SDS011;39288;42.970;1.524;2022-07-29T13:44:50;3.70;;;1.93;;
53389;SDS011;39288;42.970;1.524;2022-07-29T13:45:51;3.60;;;2.33;;
53389;SDS011;39288;42.970;1.524;2022-07-29T13:46:52;3.73;;;2.10;;
53389;SDS011;39288;42.970;1.524;2022-07-29T13:47:52;2.43;;;2.10;;
53389;SDS011;39288;42.970;1.524;2022-07-29T13:48:53;4.10;;;2.47;;
53389;SDS011;39288;42.970;1.524;2022-07-29T13:49:53;3.47;;;2.20;;
53389;SDS011;39288;42.970;1.524;2022-07-29T13:50:54;4.77;;;2.30;;
53389;SDS011;39288;42.970;1.524;2022-07-29T13:51:54;2.63;;;2.40;;
53389;SDS011;39288;42.970;1.524;2022-07-29T13:52:55;2.40;;;2.10;;
53389;SDS011;39288;42.970;1.524;2022-07-29T13:53:55;4.70;;;2.40;;
53389;SDS011;39288;42.970;1.524;2022-07-29T13:54:56;2.87;;;2.17;;
53389;SDS011;39288;42.970;1.524;2022-07-29T13:55:56;3.00;;;2.30;;
53389;SDS011;39288;42.970;1.524;2022-07-29T13:56:57;4.70;;;2.13;;
53389;SDS011;39288;42.970;1.524;2022-07-29T13:57:57;5.73;;;2.30;;
53389;SDS011;39288;42.970;1.524;2022-07-29T13:58:58;2.40;;;2.00;;
53389;SDS011;39288;42.970;1.524;2022-07-29T13:59:58;3.97;;;1.90;;
53389;SDS011;39288;42.970;1.524;2022-07-29T14:00:59;3.50;;;2.23;;
53389;SDS011;39288;42.970;1.524;2022-07-29T14:02:00;4.72;;;2.38;;
53389;SDS011;39288;42.970;1.524;2022-07-29T14:03:00;3.50;;;2.20;;
53389;SDS011;39288;42.970;1.524;2022-07-29T14:04:01;2.77;;;2.00;;
53389;SDS011;39288;42.970;1.524;2022-07-29T14:05:01;3.20;;;2.53;;
53389;SDS011;39288;42.970;1.524;2022-07-29T14:06:02;2.97;;;2.20;;
53389;SDS011;39288;42.970;1.524;2022-07-29T14:07:02;2.03;;;1.73;;
53389;SDS011;39288;42.970;1.524;2022-07-29T14:08:03;3.20;;;2.10;;
53389;SDS011;39288;42.970;1.524;2022-07-29T14:09:04;2.40;;;1.77;;
53389;SDS011;39288;42.970;1.524;2022-07-29T14:10:06;1.88;;;1.67;;
53389;SDS011;39288;42.970;1.524;2022-07-29T14:11:07;2.83;;;2.20;;
53389;SDS011;39288;42.970;1.524;2022-07-29T14:12:07;4.80;;;2.20;;
53389;SDS011;39288;42.970;1.524;2022-07-29T14:13:08;2.13;;;1.92;;
53389;SDS011;39288;42.970;1.524;2022-07-29T14:14:09;3.50;;;2.00;;
53389;SDS011;39288;42.970;1.524;2022-07-29T14:15:10;2.88;;;2.10;;
53389;SDS011;39288;42.970;1.524;2022-07-29T14:16:11;2.50;;;1.93;;
53389;SDS011;39288;42.970;1.524;2022-07-29T14:17:11;3.60;;;1.90;;
53389;SDS011;39288;42.970;1.524;2022-07-29T14:18:12;3.37;;;1.93;;
53389;SDS011;39288;42.970;1.524;2022-07-29T14:19:12;3.57;;;1.90;;
53389;SDS011;39288;42.970;1.524;2022-07-29T14:20:13;2.63;;;1.83;;
53389;SDS011;39288;42.970;1.524;2022-07-29T14:21:15;3.90;;;1.95;;
53389;SDS011;39288;42.970;1.524;2022-07-29T14:22:16;3.38;;;1.95;;
53389;SDS011;39288;42.970;1.524;2022-07-29T14:23:18;4.25;;;2.00;;
53389;SDS011;39288;42.970;1.524;2022-07-29T14:24:19;1.90;;;1.70;;
53389;SDS011;39288;42.970;1.524;2022-07-29T14:25:20;2.57;;;2.03;;
53389;SDS011;39288;42.970;1.524;2022-07-29T14:26:20;2.77;;;2.10;;
53389;SDS011;39288;42.970;1.524;2022-07-29T14:27:22;3.80;;;2.20;;
53389;SDS011;39288;42.970;1.524;2022-07-29T14:28:22;4.10;;;2.00;;
53389;SDS011;39288;42.970;1.524;2022-07-29T14:29:23;2.47;;;1.57;;
53389;SDS011;39288;42.970;1.524;2022-07-29T14:30:23;2.57;;;2.20;;
53389;SDS011;39288;42.970;1.524;2022-07-29T14:31:24;2.50;;;1.90;;
53389;SDS011;39288;42.970;1.524;2022-07-29T14:32:25;4.10;;;2.87;;
53389;SDS011;39288;42.970;1.524;2022-07-29T14:33:25;3.47;;;2.10;;
53389;SDS011;39288;42.970;1.524;2022-07-29T14:34:26;2.90;;;2.53;;
53389;SDS011;39288;42.970;1.524;2022-07-29T14:35:26;3.00;;;2.17;;
53389;SDS011;39288;42.970;1.524;2022-07-29T14:36:27;3.90;;;2.37;;
53389;SDS011;39288;42.970;1.524;2022-07-29T14:37:27;2.93;;;2.13;;
53389;SDS011;39288;42.970;1.524;2022-07-29T14:38:28;3.60;;;2.30;;
53389;SDS011;39288;42.970;1.524;2022-07-29T14:39:28;2.27;;;1.87;;
53389;SDS011;39288;42.970;1.524;2022-07-29T14:40:29;4.67;;;2.30;;
53389;SDS011;39288;42.970;1.524;2022-07-29T14:41:30;2.00;;;1.80;;
53389;SDS011;39288;42.970;1.524;2022-07-29T14:42:30;4.13;;;2.07;;
53389;SDS011;39288;42.970;1.524;2022-07-29T14:43:31;3.53;;;2.30;;
53389;SDS011;39288;42.970;1.524;2022-07-29T14:44:32;2.40;;;1.90;;
53389;SDS011;39288;42.970;1.524;2022-07-29T14:45:32;2.27;;;2.07;;
53389;SDS011;39288;42.970;1.524;2022-07-29T14:46:33;4.97;;;2.67;;
53389;SDS011;39288;42.970;1.524;2022-07-29T14:47:33;2.47;;;1.90;;
53389;SDS011;39288;42.970;1.524;2022-07-29T14:48:34;6.07;;;2.83;;
53389;SDS011;39288;42.970;1.524;2022-07-29T14:49:35;2.73;;;2.30;;
53389;SDS011;39288;42.970;1.524;2022-07-29T14:50:35;3.13;;;2.30;;
53389;SDS011;39288;42.970;1.524;2022-07-29T14:51:36;3.10;;;2.30;;
53389;SDS011;39288;42.970;1.524;2022-07-29T14:52:37;2.75;;;1.95;;
53389;SDS011;39288;42.970;1.524;2022-07-29T14:53:37;4.40;;;2.30;;
53389;SDS011;39288;42.970;1.524;2022-07-29T14:54:38;2.63;;;2.43;;
53389;SDS011;39288;42.970;1.524;2022-07-29T14:55:39;4.03;;;2.37;;
53389;SDS011;39288;42.970;1.524;2022-07-29T14:56:40;3.65;;;2.42;;
53389;SDS011;39288;42.970;1.524;2022-07-29T14:57:40;3.83;;;2.33;;
53389;SDS011;39288;42.970;1.524;2022-07-29T14:58:41;3.30;;;2.50;;
53389;SDS011;39288;42.970;1.524;2022-07-29T14:59:41;5.53;;;2.20;;
53389;SDS011;39288;42.970;1.524;2022-07-29T15:00:42;3.70;;;2.63;;
53389;SDS011;39288;42.970;1.524;2022-07-29T15:01:43;4.23;;;2.50;;
53389;SDS011;39288;42.970;1.524;2022-07-29T15:02:43;2.80;;;2.33;;
53389;SDS011;39288;42.970;1.524;2022-07-29T15:03:44;5.07;;;2.50;;
53389;SDS011;39288;42.970;1.524;2022-07-29T15:04:44;5.43;;;2.73;;
53389;SDS011;39288;42.970;1.524;2022-07-29T15:05:46;2.83;;;2.63;;
53389;SDS011;39288;42.970;1.524;2022-07-29T15:06:46;3.90;;;2.60;;
53389;SDS011;39288;42.970;1.524;2022-07-29T15:07:47;2.67;;;2.40;;
53389;SDS011;39288;42.970;1.524;2022-07-29T15:08:47;3.37;;;2.70;;